sensor_id;sensor_type;location;lat;lon;timestamp;P1;durP1;ratioP1;P2;durP2;ratioP2
8488;SDS011;4281;45.772;12.852;2023-08-21T00:00:03;11.40;;;10.60;;
8488;SDS011;4281;45.772;12.852;2023-08-21T00:02:31;11.47;;;10.60;;
8488;SDS011;4281;45.772;12.852;2023-08-21T00:04:59;11.37;;;10.57;;
8488;SDS011;4281;45.772;12.852;2023-08-21T00:07:27;11.63;;;10.83;;
8488;SDS011;4281;45.772;12.852;2023-08-21T00:09:56;11.83;;;11.03;;
8488;SDS011;4281;45.772;12.852;2023-08-21T00:12:24;11.80;;;11.00;;
8488;SDS011;4281;45.772;12.852;2023-08-21T00:14:52;11.40;;;10.60;;
8488;SDS011;4281;45.772;12.852;2023-08-21T00:17:20;11.60;;;10.73;;
8488;SDS011;4281;45.772;12.852;2023-08-21T00:19:47;11.23;;;10.43;;
8488;SDS011;4281;45.772;12.852;2023-08-21T00:22:15;11.13;;;10.33;;
8488;SDS011;4281;45.772;12.852;2023-08-21T00:24:43;10.87;;;10.07;;
8488;SDS011;4281;45.772;12.852;2023-08-21T00:27:13;11.50;;;10.57;;
8488;SDS011;4281;45.772;12.852;2023-08-21T00:29:40;11.80;;;10.90;;
8488;SDS011;4281;45.772;12.852;2023-08-21T00:32:08;11.30;;;10.50;;
8488;SDS011;4281;45.772;12.852;2023-08-21T00:34:38;11.77;;;10.83;;
8488;SDS011;4281;45.772;12.852;2023-08-21T00:37:06;12.40;;;11.30;;
8488;SDS011;4281;45.772;12.852;2023-08-21T00:39:34;11.07;;;10.27;;
8488;SDS011;4281;45.772;12.852;2023-08-21T00:42:02;11.23;;;10.33;;
8488;SDS011;4281;45.772;12.852;2023-08-21T00:44:31;12.10;;;11.13;;
8488;SDS011;4281;45.772;12.852;2023-08-21T00:46:59;11.10;;;10.30;;
8488;SDS011;4281;45.772;12.852;2023-08-21T00:49:27;11.60;;;10.70;;
8488;SDS011;4281;45.772;12.852;2023-08-21T00:51:56;11.23;;;10.33;;
8488;SDS011;4281;45.772;12.852;2023-08-21T00:54:24;11.73;;;10.93;;
8488;SDS011;4281;45.772;12.852;2023-08-21T00:56:52;11.63;;;10.73;;
8488;SDS011;4281;45.772;12.852;2023-08-21T00:59:21;11.73;;;10.83;;
8488;SDS011;4281;45.772;12.852;2023-08-21T01:01:51;11.13;;;10.23;;
8488;SDS011;4281;45.772;12.852;2023-08-21T01:04:19;10.53;;;9.73;;
8488;SDS011;4281;45.772;12.852;2023-08-21T01:06:48;11.10;;;10.20;;
8488;SDS011;4281;45.772;12.852;2023-08-21T01:09:17;10.53;;;9.80;;
8488;SDS011;4281;45.772;12.852;2023-08-21T01:11:54;9.93;;;9.23;;
8488;SDS011;4281;45.772;12.852;2023-08-21T01:14:28;10.10;;;9.40;;
8488;SDS011;4281;45.772;12.852;2023-08-21T01:17:00;10.47;;;9.67;;
8488;SDS011;4281;45.772;12.852;2023-08-21T01:19:32;10.60;;;9.80;;
8488;SDS011;4281;45.772;12.852;2023-08-21T01:22:04;10.50;;;9.60;;
8488;SDS011;4281;45.772;12.852;2023-08-21T01:24:33;10.53;;;9.73;;
8488;SDS011;4281;45.772;12.852;2023-08-21T01:27:02;10.23;;;9.53;;
8488;SDS011;4281;45.772;12.852;2023-08-21T01:29:30;10.67;;;9.77;;
8488;SDS011;4281;45.772;12.852;2023-08-21T01:32:00;9.87;;;9.13;;
8488;SDS011;4281;45.772;12.852;2023-08-21T01:34:31;9.73;;;8.83;;
8488;SDS011;4281;45.772;12.852;2023-08-21T01:37:00;10.20;;;9.50;;
8488;SDS011;4281;45.772;12.852;2023-08-21T01:39:28;10.03;;;9.17;;
8488;SDS011;4281;45.772;12.852;2023-08-21T01:41:58;9.50;;;8.90;;
8488;SDS011;4281;45.772;12.852;2023-08-21T01:44:27;9.93;;;9.13;;
8488;SDS011;4281;45.772;12.852;2023-08-21T01:46:55;9.87;;;9.17;;
8488;SDS011;4281;45.772;12.852;2023-08-21T01:49:23;10.33;;;9.47;;
8488;SDS011;4281;45.772;12.852;2023-08-21T01:51:51;10.53;;;9.63;;
8488;SDS011;4281;45.772;12.852;2023-08-21T01:54:18;10.00;;;9.30;;
8488;SDS011;4281;45.772;12.852;2023-08-21T01:56:46;10.20;;;9.40;;
8488;SDS011;4281;45.772;12.852;2023-08-21T01:59:16;9.97;;;9.27;;
8488;SDS011;4281;45.772;12.852;2023-08-21T02:01:44;9.97;;;9.30;;
8488;SDS011;4281;45.772;12.852;2023-08-21T02:04:12;9.87;;;9.20;;
8488;SDS011;4281;45.772;12.852;2023-08-21T02:06:40;9.67;;;8.97;;
8488;SDS011;4281;45.772;12.852;2023-08-21T02:09:08;9.40;;;8.80;;
8488;SDS011;4281;45.772;12.852;2023-08-21T02:11:35;10.00;;;9.30;;
8488;SDS011;4281;45.772;12.852;2023-08-21T02:14:03;9.40;;;8.73;;
8488;SDS011;4281;45.772;12.852;2023-08-21T02:16:33;9.90;;;9.10;;
8488;SDS011;4281;45.772;12.852;2023-08-21T02:19:01;9.87;;;9.17;;
8488;SDS011;4281;45.772;12.852;2023-08-21T02:21:28;9.47;;;8.77;;
8488;SDS011;4281;45.772;12.852;2023-08-21T02:23:56;9.80;;;9.07;;
8488;SDS011;4281;45.772;12.852;2023-08-21T02:26:24;10.30;;;9.50;;
8488;SDS011;4281;45.772;12.852;2023-08-21T02:28:52;9.13;;;8.50;;
8488;SDS011;4281;45.772;12.852;2023-08-21T02:31:20;9.37;;;8.67;;
8488;SDS011;4281;45.772;12.852;2023-08-21T02:33:49;9.33;;;8.73;;
8488;SDS011;4281;45.772;12.852;2023-08-21T02:36:18;9.70;;;9.00;;
8488;SDS011;4281;45.772;12.852;2023-08-21T02:38:46;9.50;;;8.90;;
8488;SDS011;4281;45.772;12.852;2023-08-21T02:41:13;10.10;;;9.30;;
8488;SDS011;4281;45.772;12.852;2023-08-21T02:43:43;10.30;;;9.33;;
8488;SDS011;4281;45.772;12.852;2023-08-21T02:46:11;10.60;;;9.80;;
8488;SDS011;4281;45.772;12.852;2023-08-21T02:48:39;10.37;;;9.57;;
8488;SDS011;4281;45.772;12.852;2023-08-21T02:51:08;9.80;;;9.00;;
8488;SDS011;4281;45.772;12.852;2023-08-21T02:53:36;9.37;;;8.70;;
8488;SDS011;4281;45.772;12.852;2023-08-21T02:56:04;10.30;;;9.50;;
8488;SDS011;4281;45.772;12.852;2023-08-21T02:58:32;9.83;;;9.13;;
8488;SDS011;4281;45.772;12.852;2023-08-21T03:01:00;9.03;;;8.33;;
8488;SDS011;4281;45.772;12.852;2023-08-21T03:03:28;9.47;;;8.87;;
8488;SDS011;4281;45.772;12.852;2023-08-21T03:05:56;10.03;;;9.33;;
8488;SDS011;4281;45.772;12.852;2023-08-21T03:08:25;10.27;;;9.57;;
8488;SDS011;4281;45.772;12.852;2023-08-21T03:10:53;9.97;;;9.17;;
8488;SDS011;4281;45.772;12.852;2023-08-21T03:13:21;9.63;;;8.93;;
8488;SDS011;4281;45.772;12.852;2023-08-21T03:15:48;9.53;;;8.83;;
8488;SDS011;4281;45.772;12.852;2023-08-21T03:18:16;10.23;;;9.53;;
8488;SDS011;4281;45.772;12.852;2023-08-21T03:20:44;9.57;;;8.87;;
8488;SDS011;4281;45.772;12.852;2023-08-21T03:23:12;10.17;;;9.37;;
8488;SDS011;4281;45.772;12.852;2023-08-21T03:25:42;9.80;;;9.10;;
8488;SDS011;4281;45.772;12.852;2023-08-21T03:28:10;9.90;;;9.00;;
8488;SDS011;4281;45.772;12.852;2023-08-21T03:30:38;10.70;;;9.90;;
8488;SDS011;4281;45.772;12.852;2023-08-21T03:33:07;9.30;;;8.60;;
8488;SDS011;4281;45.772;12.852;2023-08-21T03:35:35;10.27;;;9.43;;
8488;SDS011;4281;45.772;12.852;2023-08-21T03:38:03;9.67;;;8.97;;
8488;SDS011;4281;45.772;12.852;2023-08-21T03:40:31;9.60;;;8.90;;
8488;SDS011;4281;45.772;12.852;2023-08-21T03:43:00;9.37;;;8.67;;
8488;SDS011;4281;45.772;12.852;2023-08-21T03:45:28;9.33;;;8.67;;
8488;SDS011;4281;45.772;12.852;2023-08-21T03:47:56;10.00;;;9.20;;
8488;SDS011;4281;45.772;12.852;2023-08-21T03:50:24;9.67;;;8.87;;
8488;SDS011;4281;45.772;12.852;2023-08-21T03:52:51;10.00;;;9.20;;
8488;SDS011;4281;45.772;12.852;2023-08-21T03:55:19;10.00;;;9.17;;
8488;SDS011;4281;45.772;12.852;2023-08-21T03:57:47;9.70;;;8.90;;
8488;SDS011;4281;45.772;12.852;2023-08-21T04:00:17;10.43;;;9.60;;
8488;SDS011;4281;45.772;12.852;2023-08-21T04:02:44;10.03;;;9.33;;
8488;SDS011;4281;45.772;12.852;2023-08-21T04:05:13;10.00;;;9.20;;
8488;SDS011;4281;45.772;12.852;2023-08-21T04:07:41;10.43;;;9.60;;
8488;SDS011;4281;45.772;12.852;2023-08-21T04:10:09;9.93;;;9.13;;
8488;SDS011;4281;45.772;12.852;2023-08-21T04:12:37;10.50;;;9.60;;
8488;SDS011;4281;45.772;12.852;2023-08-21T04:15:05;9.70;;;8.90;;
8488;SDS011;4281;45.772;12.852;2023-08-21T04:17:35;10.17;;;9.40;;
8488;SDS011;4281;45.772;12.852;2023-08-21T04:20:04;9.87;;;9.13;;
8488;SDS011;4281;45.772;12.852;2023-08-21T04:22:32;9.80;;;9.10;;
8488;SDS011;4281;45.772;12.852;2023-08-21T04:25:00;9.47;;;8.77;;
8488;SDS011;4281;45.772;12.852;2023-08-21T04:27:28;9.47;;;8.77;;
8488;SDS011;4281;45.772;12.852;2023-08-21T04:29:56;10.83;;;9.93;;
8488;SDS011;4281;45.772;12.852;2023-08-21T04:32:24;9.47;;;8.77;;
8488;SDS011;4281;45.772;12.852;2023-08-21T04:34:53;9.80;;;8.90;;
8488;SDS011;4281;45.772;12.852;2023-08-21T04:37:22;10.33;;;9.53;;
8488;SDS011;4281;45.772;12.852;2023-08-21T04:39:50;9.30;;;8.60;;
8488;SDS011;4281;45.772;12.852;2023-08-21T04:42:19;10.37;;;9.57;;
8488;SDS011;4281;45.772;12.852;2023-08-21T04:44:47;10.20;;;9.40;;
8488;SDS011;4281;45.772;12.852;2023-08-21T04:47:21;10.17;;;9.47;;
8488;SDS011;4281;45.772;12.852;2023-08-21T04:49:50;9.83;;;9.13;;
8488;SDS011;4281;45.772;12.852;2023-08-21T04:52:20;10.63;;;9.73;;
8488;SDS011;4281;45.772;12.852;2023-08-21T04:54:48;9.90;;;9.10;;
8488;SDS011;4281;45.772;12.852;2023-08-21T04:57:16;10.83;;;9.83;;
8488;SDS011;4281;45.772;12.852;2023-08-21T04:59:44;10.40;;;9.60;;
8488;SDS011;4281;45.772;12.852;2023-08-21T05:02:12;10.20;;;9.30;;
8488;SDS011;4281;45.772;12.852;2023-08-21T05:04:40;10.23;;;9.37;;
8488;SDS011;4281;45.772;12.852;2023-08-21T05:07:08;9.90;;;9.10;;
8488;SDS011;4281;45.772;12.852;2023-08-21T05:09:37;9.90;;;9.10;;
8488;SDS011;4281;45.772;12.852;2023-08-21T05:12:06;9.97;;;9.27;;
8488;SDS011;4281;45.772;12.852;2023-08-21T05:14:35;10.13;;;9.33;;
8488;SDS011;4281;45.772;12.852;2023-08-21T05:17:03;10.20;;;9.43;;
8488;SDS011;4281;45.772;12.852;2023-08-21T05:19:31;10.47;;;9.73;;
8488;SDS011;4281;45.772;12.852;2023-08-21T05:21:59;9.90;;;9.10;;
8488;SDS011;4281;45.772;12.852;2023-08-21T05:24:27;10.13;;;9.33;;
8488;SDS011;4281;45.772;12.852;2023-08-21T05:26:57;10.40;;;9.60;;
8488;SDS011;4281;45.772;12.852;2023-08-21T05:29:27;10.33;;;9.53;;
8488;SDS011;4281;45.772;12.852;2023-08-21T05:31:54;9.47;;;8.77;;
8488;SDS011;4281;45.772;12.852;2023-08-21T05:34:22;9.70;;;9.00;;
8488;SDS011;4281;45.772;12.852;2023-08-21T05:36:52;9.97;;;9.17;;
8488;SDS011;4281;45.772;12.852;2023-08-21T05:39:21;10.00;;;9.30;;
8488;SDS011;4281;45.772;12.852;2023-08-21T05:41:49;9.70;;;8.90;;
8488;SDS011;4281;45.772;12.852;2023-08-21T05:44:18;10.60;;;9.80;;
8488;SDS011;4281;45.772;12.852;2023-08-21T05:46:46;9.47;;;8.63;;
8488;SDS011;4281;45.772;12.852;2023-08-21T05:49:14;10.10;;;9.20;;
8488;SDS011;4281;45.772;12.852;2023-08-21T05:51:42;9.93;;;9.13;;
8488;SDS011;4281;45.772;12.852;2023-08-21T05:54:10;9.87;;;9.07;;
8488;SDS011;4281;45.772;12.852;2023-08-21T05:56:38;9.60;;;8.90;;
8488;SDS011;4281;45.772;12.852;2023-08-21T05:59:05;9.93;;;9.13;;
8488;SDS011;4281;45.772;12.852;2023-08-21T06:01:35;9.50;;;8.80;;
8488;SDS011;4281;45.772;12.852;2023-08-21T06:04:03;9.70;;;8.93;;
8488;SDS011;4281;45.772;12.852;2023-08-21T06:06:31;9.57;;;8.87;;
8488;SDS011;4281;45.772;12.852;2023-08-21T06:08:59;10.43;;;9.53;;
8488;SDS011;4281;45.772;12.852;2023-08-21T06:11:27;9.13;;;8.43;;
8488;SDS011;4281;45.772;12.852;2023-08-21T06:13:55;10.13;;;9.33;;
8488;SDS011;4281;45.772;12.852;2023-08-21T06:16:25;9.87;;;8.97;;
8488;SDS011;4281;45.772;12.852;2023-08-21T06:18:55;9.30;;;8.70;;
8488;SDS011;4281;45.772;12.852;2023-08-21T06:21:23;9.43;;;8.67;;
8488;SDS011;4281;45.772;12.852;2023-08-21T06:23:50;9.97;;;9.07;;
8488;SDS011;4281;45.772;12.852;2023-08-21T06:26:18;9.97;;;8.97;;
8488;SDS011;4281;45.772;12.852;2023-08-21T06:28:46;10.00;;;9.10;;
8488;SDS011;4281;45.772;12.852;2023-08-21T06:31:15;10.27;;;9.37;;
8488;SDS011;4281;45.772;12.852;2023-08-21T06:33:43;9.83;;;9.13;;
8488;SDS011;4281;45.772;12.852;2023-08-21T06:36:13;9.93;;;8.93;;
8488;SDS011;4281;45.772;12.852;2023-08-21T06:38:41;10.53;;;9.63;;
8488;SDS011;4281;45.772;12.852;2023-08-21T06:41:10;9.50;;;8.60;;
8488;SDS011;4281;45.772;12.852;2023-08-21T06:43:38;9.70;;;9.00;;
8488;SDS011;4281;45.772;12.852;2023-08-21T06:46:10;9.77;;;9.03;;
8488;SDS011;4281;45.772;12.852;2023-08-21T06:48:39;9.70;;;8.80;;
8488;SDS011;4281;45.772;12.852;2023-08-21T06:51:07;10.07;;;9.27;;
8488;SDS011;4281;45.772;12.852;2023-08-21T06:53:36;9.70;;;8.77;;
8488;SDS011;4281;45.772;12.852;2023-08-21T06:56:05;9.97;;;9.17;;
8488;SDS011;4281;45.772;12.852;2023-08-21T06:58:33;10.40;;;9.67;;
8488;SDS011;4281;45.772;12.852;2023-08-21T07:01:01;10.67;;;9.70;;
8488;SDS011;4281;45.772;12.852;2023-08-21T07:03:29;10.67;;;9.67;;
8488;SDS011;4281;45.772;12.852;2023-08-21T07:05:57;10.10;;;9.30;;
8488;SDS011;4281;45.772;12.852;2023-08-21T07:08:26;10.30;;;9.50;;
8488;SDS011;4281;45.772;12.852;2023-08-21T07:10:56;10.77;;;9.87;;
8488;SDS011;4281;45.772;12.852;2023-08-21T07:13:25;10.70;;;9.70;;
8488;SDS011;4281;45.772;12.852;2023-08-21T07:15:53;10.27;;;9.37;;
8488;SDS011;4281;45.772;12.852;2023-08-21T07:18:22;10.20;;;9.03;;
8488;SDS011;4281;45.772;12.852;2023-08-21T07:20:51;10.73;;;9.70;;
8488;SDS011;4281;45.772;12.852;2023-08-21T07:23:19;10.63;;;9.83;;
8488;SDS011;4281;45.772;12.852;2023-08-21T07:25:48;10.43;;;9.53;;
8488;SDS011;4281;45.772;12.852;2023-08-21T07:28:17;10.67;;;9.77;;
8488;SDS011;4281;45.772;12.852;2023-08-21T07:30:45;10.13;;;9.23;;
8488;SDS011;4281;45.772;12.852;2023-08-21T07:33:13;10.60;;;9.70;;
8488;SDS011;4281;45.772;12.852;2023-08-21T07:35:41;10.80;;;9.93;;
8488;SDS011;4281;45.772;12.852;2023-08-21T07:38:10;9.97;;;9.17;;
8488;SDS011;4281;45.772;12.852;2023-08-21T07:40:38;10.30;;;9.50;;
8488;SDS011;4281;45.772;12.852;2023-08-21T07:43:06;10.47;;;9.67;;
8488;SDS011;4281;45.772;12.852;2023-08-21T07:45:38;10.47;;;9.43;;
8488;SDS011;4281;45.772;12.852;2023-08-21T07:48:06;10.73;;;9.70;;
8488;SDS011;4281;45.772;12.852;2023-08-21T07:50:40;10.20;;;9.20;;
8488;SDS011;4281;45.772;12.852;2023-08-21T07:53:09;10.67;;;9.80;;
8488;SDS011;4281;45.772;12.852;2023-08-21T07:55:37;11.70;;;10.57;;
8488;SDS011;4281;45.772;12.852;2023-08-21T07:58:04;10.47;;;9.23;;
8488;SDS011;4281;45.772;12.852;2023-08-21T08:00:32;10.33;;;9.60;;
8488;SDS011;4281;45.772;12.852;2023-08-21T08:03:02;10.07;;;9.37;;
8488;SDS011;4281;45.772;12.852;2023-08-21T08:05:30;10.10;;;9.30;;
8488;SDS011;4281;45.772;12.852;2023-08-21T08:08:00;9.33;;;8.63;;
8488;SDS011;4281;45.772;12.852;2023-08-21T08:10:28;9.93;;;8.97;;
8488;SDS011;4281;45.772;12.852;2023-08-21T08:12:57;9.93;;;9.10;;
8488;SDS011;4281;45.772;12.852;2023-08-21T08:15:24;10.03;;;9.23;;
8488;SDS011;4281;45.772;12.852;2023-08-21T08:17:53;10.10;;;9.27;;
8488;SDS011;4281;45.772;12.852;2023-08-21T08:20:23;10.10;;;9.40;;
8488;SDS011;4281;45.772;12.852;2023-08-21T08:22:52;9.67;;;8.90;;
8488;SDS011;4281;45.772;12.852;2023-08-21T08:25:20;9.63;;;8.77;;
8488;SDS011;4281;45.772;12.852;2023-08-21T08:27:48;9.63;;;8.93;;
8488;SDS011;4281;45.772;12.852;2023-08-21T08:30:16;10.30;;;9.50;;
8488;SDS011;4281;45.772;12.852;2023-08-21T08:32:46;10.27;;;9.37;;
8488;SDS011;4281;45.772;12.852;2023-08-21T08:35:14;10.10;;;9.30;;
8488;SDS011;4281;45.772;12.852;2023-08-21T08:37:43;9.43;;;8.73;;
8488;SDS011;4281;45.772;12.852;2023-08-21T08:40:11;10.80;;;9.70;;
8488;SDS011;4281;45.772;12.852;2023-08-21T08:42:39;9.50;;;8.80;;
8488;SDS011;4281;45.772;12.852;2023-08-21T08:45:07;9.30;;;8.67;;
8488;SDS011;4281;45.772;12.852;2023-08-21T08:47:36;9.77;;;8.97;;
8488;SDS011;4281;45.772;12.852;2023-08-21T08:50:04;9.63;;;8.93;;
8488;SDS011;4281;45.772;12.852;2023-08-21T08:52:34;9.87;;;9.07;;
8488;SDS011;4281;45.772;12.852;2023-08-21T08:55:05;10.30;;;9.53;;
8488;SDS011;4281;45.772;12.852;2023-08-21T08:57:34;10.10;;;9.30;;
8488;SDS011;4281;45.772;12.852;2023-08-21T09:00:02;8.97;;;8.30;;
8488;SDS011;4281;45.772;12.852;2023-08-21T09:02:31;10.37;;;9.47;;
8488;SDS011;4281;45.772;12.852;2023-08-21T09:04:59;9.73;;;9.03;;
8488;SDS011;4281;45.772;12.852;2023-08-21T09:07:27;9.60;;;8.90;;
8488;SDS011;4281;45.772;12.852;2023-08-21T09:09:56;9.93;;;9.13;;
8488;SDS011;4281;45.772;12.852;2023-08-21T09:12:25;10.53;;;9.73;;
8488;SDS011;4281;45.772;12.852;2023-08-21T09:14:53;9.60;;;8.67;;
8488;SDS011;4281;45.772;12.852;2023-08-21T09:17:21;9.90;;;9.10;;
8488;SDS011;4281;45.772;12.852;2023-08-21T09:19:50;10.10;;;9.30;;
8488;SDS011;4281;45.772;12.852;2023-08-21T09:22:18;9.07;;;8.33;;
8488;SDS011;4281;45.772;12.852;2023-08-21T09:25:02;8.90;;;8.30;;
8488;SDS011;4281;45.772;12.852;2023-08-21T09:27:35;10.00;;;9.30;;
8488;SDS011;4281;45.772;12.852;2023-08-21T09:30:03;10.20;;;9.43;;
8488;SDS011;4281;45.772;12.852;2023-08-21T09:32:32;10.07;;;9.37;;
8488;SDS011;4281;45.772;12.852;2023-08-21T09:35:19;9.70;;;9.00;;
8488;SDS011;4281;45.772;12.852;2023-08-21T09:37:47;9.77;;;8.97;;
8488;SDS011;4281;45.772;12.852;2023-08-21T09:40:15;9.13;;;8.43;;
8488;SDS011;4281;45.772;12.852;2023-08-21T09:42:44;10.50;;;8.57;;
8488;SDS011;4281;45.772;12.852;2023-08-21T09:45:12;9.70;;;8.90;;
8488;SDS011;4281;45.772;12.852;2023-08-21T09:47:40;9.70;;;8.70;;
8488;SDS011;4281;45.772;12.852;2023-08-21T09:50:08;10.07;;;9.13;;
8488;SDS011;4281;45.772;12.852;2023-08-21T09:52:36;9.33;;;8.43;;
8488;SDS011;4281;45.772;12.852;2023-08-21T09:55:05;8.77;;;8.13;;
8488;SDS011;4281;45.772;12.852;2023-08-21T09:57:33;9.17;;;8.37;;
8488;SDS011;4281;45.772;12.852;2023-08-21T10:00:03;8.67;;;7.97;;
8488;SDS011;4281;45.772;12.852;2023-08-21T10:02:41;8.87;;;8.27;;
8488;SDS011;4281;45.772;12.852;2023-08-21T10:05:09;8.10;;;7.30;;
8488;SDS011;4281;45.772;12.852;2023-08-21T10:07:38;8.10;;;7.40;;
8488;SDS011;4281;45.772;12.852;2023-08-21T10:10:07;8.13;;;7.60;;
8488;SDS011;4281;45.772;12.852;2023-08-21T10:12:35;7.73;;;7.23;;
8488;SDS011;4281;45.772;12.852;2023-08-21T10:15:05;7.93;;;7.37;;
8488;SDS011;4281;45.772;12.852;2023-08-21T10:17:36;7.60;;;7.07;;
8488;SDS011;4281;45.772;12.852;2023-08-21T10:20:05;8.10;;;7.50;;
8488;SDS011;4281;45.772;12.852;2023-08-21T10:22:38;7.60;;;7.03;;
8488;SDS011;4281;45.772;12.852;2023-08-21T10:25:13;7.20;;;6.70;;
8488;SDS011;4281;45.772;12.852;2023-08-21T10:27:42;7.57;;;6.93;;
8488;SDS011;4281;45.772;12.852;2023-08-21T10:30:14;8.23;;;7.63;;
8488;SDS011;4281;45.772;12.852;2023-08-21T10:32:46;7.77;;;7.17;;
8488;SDS011;4281;45.772;12.852;2023-08-21T10:35:15;8.00;;;7.40;;
8488;SDS011;4281;45.772;12.852;2023-08-21T10:40:39;8.20;;;7.60;;
8488;SDS011;4281;45.772;12.852;2023-08-21T10:46:08;7.53;;;7.03;;
8488;SDS011;4281;45.772;12.852;2023-08-21T10:48:36;7.70;;;7.10;;
8488;SDS011;4281;45.772;12.852;2023-08-21T10:51:04;8.20;;;7.60;;
8488;SDS011;4281;45.772;12.852;2023-08-21T10:53:33;8.40;;;7.80;;
8488;SDS011;4281;45.772;12.852;2023-08-21T10:56:02;7.67;;;7.03;;
8488;SDS011;4281;45.772;12.852;2023-08-21T10:58:34;8.00;;;7.40;;
8488;SDS011;4281;45.772;12.852;2023-08-21T11:01:02;8.37;;;7.77;;
8488;SDS011;4281;45.772;12.852;2023-08-21T11:03:31;7.80;;;7.10;;
8488;SDS011;4281;45.772;12.852;2023-08-21T11:06:00;7.37;;;6.77;;
8488;SDS011;4281;45.772;12.852;2023-08-21T11:08:29;7.33;;;6.73;;
8488;SDS011;4281;45.772;12.852;2023-08-21T11:10:57;7.57;;;7.07;;
8488;SDS011;4281;45.772;12.852;2023-08-21T11:13:25;7.53;;;6.93;;
8488;SDS011;4281;45.772;12.852;2023-08-21T11:15:59;7.70;;;7.00;;
8488;SDS011;4281;45.772;12.852;2023-08-21T11:18:32;7.17;;;6.67;;
8488;SDS011;4281;45.772;12.852;2023-08-21T11:21:04;8.13;;;7.53;;
8488;SDS011;4281;45.772;12.852;2023-08-21T11:23:35;7.63;;;7.03;;
8488;SDS011;4281;45.772;12.852;2023-08-21T11:26:04;7.80;;;7.20;;
8488;SDS011;4281;45.772;12.852;2023-08-21T11:28:47;7.00;;;6.43;;
8488;SDS011;4281;45.772;12.852;2023-08-21T11:31:15;7.60;;;7.00;;
8488;SDS011;4281;45.772;12.852;2023-08-21T11:33:50;6.70;;;6.20;;
8488;SDS011;4281;45.772;12.852;2023-08-21T11:36:18;7.60;;;6.90;;
8488;SDS011;4281;45.772;12.852;2023-08-21T11:38:57;6.90;;;6.50;;
8488;SDS011;4281;45.772;12.852;2023-08-21T11:41:26;7.30;;;6.70;;
8488;SDS011;4281;45.772;12.852;2023-08-21T11:43:57;8.13;;;7.53;;
8488;SDS011;4281;45.772;12.852;2023-08-21T11:46:29;8.23;;;7.73;;
8488;SDS011;4281;45.772;12.852;2023-08-21T11:48:58;7.43;;;6.93;;
8488;SDS011;4281;45.772;12.852;2023-08-21T11:51:28;6.87;;;6.47;;
8488;SDS011;4281;45.772;12.852;2023-08-21T11:53:56;7.63;;;7.13;;
8488;SDS011;4281;45.772;12.852;2023-08-21T11:56:27;7.80;;;7.30;;
8488;SDS011;4281;45.772;12.852;2023-08-21T11:58:55;7.33;;;6.73;;
8488;SDS011;4281;45.772;12.852;2023-08-21T12:01:25;7.47;;;6.93;;
8488;SDS011;4281;45.772;12.852;2023-08-21T12:03:53;6.73;;;6.20;;
8488;SDS011;4281;45.772;12.852;2023-08-21T12:06:24;7.13;;;6.63;;
8488;SDS011;4281;45.772;12.852;2023-08-21T12:08:53;7.27;;;6.77;;
8488;SDS011;4281;45.772;12.852;2023-08-21T12:11:21;8.13;;;7.53;;
8488;SDS011;4281;45.772;12.852;2023-08-21T12:13:49;8.40;;;7.80;;
8488;SDS011;4281;45.772;12.852;2023-08-21T12:16:18;8.23;;;7.60;;
8488;SDS011;4281;45.772;12.852;2023-08-21T12:18:46;7.53;;;7.03;;
8488;SDS011;4281;45.772;12.852;2023-08-21T12:21:14;7.90;;;7.30;;
8488;SDS011;4281;45.772;12.852;2023-08-21T12:23:44;7.43;;;6.87;;
8488;SDS011;4281;45.772;12.852;2023-08-21T12:26:12;7.63;;;7.00;;
8488;SDS011;4281;45.772;12.852;2023-08-21T12:28:45;7.50;;;6.90;;
8488;SDS011;4281;45.772;12.852;2023-08-21T12:31:12;7.43;;;6.83;;
8488;SDS011;4281;45.772;12.852;2023-08-21T12:33:41;7.30;;;6.70;;
8488;SDS011;4281;45.772;12.852;2023-08-21T12:36:09;7.10;;;6.50;;
8488;SDS011;4281;45.772;12.852;2023-08-21T12:38:37;7.43;;;6.83;;
8488;SDS011;4281;45.772;12.852;2023-08-21T12:41:06;6.97;;;6.47;;
8488;SDS011;4281;45.772;12.852;2023-08-21T12:43:34;7.20;;;6.53;;
8488;SDS011;4281;45.772;12.852;2023-08-21T12:46:02;7.30;;;6.80;;
8488;SDS011;4281;45.772;12.852;2023-08-21T12:48:30;6.57;;;6.17;;
8488;SDS011;4281;45.772;12.852;2023-08-21T12:50:58;6.97;;;6.47;;
8488;SDS011;4281;45.772;12.852;2023-08-21T12:53:26;6.93;;;6.33;;
8488;SDS011;4281;45.772;12.852;2023-08-21T12:55:54;7.87;;;7.27;;
8488;SDS011;4281;45.772;12.852;2023-08-21T12:58:23;7.30;;;6.73;;
8488;SDS011;4281;45.772;12.852;2023-08-21T13:00:52;8.47;;;7.80;;
8488;SDS011;4281;45.772;12.852;2023-08-21T13:03:20;8.80;;;8.20;;
8488;SDS011;4281;45.772;12.852;2023-08-21T13:05:48;8.77;;;8.07;;
8488;SDS011;4281;45.772;12.852;2023-08-21T13:08:16;7.93;;;7.30;;
8488;SDS011;4281;45.772;12.852;2023-08-21T13:10:44;7.37;;;6.80;;
8488;SDS011;4281;45.772;12.852;2023-08-21T13:13:13;7.03;;;6.53;;
8488;SDS011;4281;45.772;12.852;2023-08-21T13:15:42;7.10;;;6.50;;
8488;SDS011;4281;45.772;12.852;2023-08-21T13:18:11;7.40;;;6.87;;
8488;SDS011;4281;45.772;12.852;2023-08-21T13:20:41;8.03;;;7.43;;
8488;SDS011;4281;45.772;12.852;2023-08-21T13:23:09;8.23;;;7.63;;
8488;SDS011;4281;45.772;12.852;2023-08-21T13:25:37;7.77;;;7.27;;
8488;SDS011;4281;45.772;12.852;2023-08-21T13:28:05;7.17;;;6.57;;
8488;SDS011;4281;45.772;12.852;2023-08-21T13:30:36;7.53;;;6.87;;
8488;SDS011;4281;45.772;12.852;2023-08-21T13:33:05;7.23;;;6.73;;
8488;SDS011;4281;45.772;12.852;2023-08-21T13:35:33;6.90;;;6.30;;
8488;SDS011;4281;45.772;12.852;2023-08-21T13:38:01;6.83;;;6.33;;
8488;SDS011;4281;45.772;12.852;2023-08-21T13:40:30;6.60;;;6.13;;
8488;SDS011;4281;45.772;12.852;2023-08-21T13:42:58;7.07;;;6.53;;
8488;SDS011;4281;45.772;12.852;2023-08-21T13:45:28;6.67;;;6.17;;
8488;SDS011;4281;45.772;12.852;2023-08-21T13:47:56;6.40;;;5.90;;
8488;SDS011;4281;45.772;12.852;2023-08-21T13:50:25;6.23;;;5.83;;
8488;SDS011;4281;45.772;12.852;2023-08-21T13:52:53;6.70;;;6.20;;
8488;SDS011;4281;45.772;12.852;2023-08-21T13:55:22;6.63;;;6.03;;
8488;SDS011;4281;45.772;12.852;2023-08-21T13:57:50;6.23;;;5.77;;
8488;SDS011;4281;45.772;12.852;2023-08-21T14:00:18;6.57;;;6.10;;
8488;SDS011;4281;45.772;12.852;2023-08-21T14:02:46;7.07;;;6.43;;
8488;SDS011;4281;45.772;12.852;2023-08-21T14:05:14;6.40;;;5.90;;
8488;SDS011;4281;45.772;12.852;2023-08-21T14:07:43;6.63;;;6.13;;
8488;SDS011;4281;45.772;12.852;2023-08-21T14:10:12;7.17;;;6.67;;
8488;SDS011;4281;45.772;12.852;2023-08-21T14:12:41;6.53;;;6.03;;
8488;SDS011;4281;45.772;12.852;2023-08-21T14:15:09;7.03;;;6.40;;
8488;SDS011;4281;45.772;12.852;2023-08-21T14:17:37;6.63;;;6.13;;
8488;SDS011;4281;45.772;12.852;2023-08-21T14:20:06;6.13;;;5.73;;
8488;SDS011;4281;45.772;12.852;2023-08-21T14:22:35;6.53;;;6.03;;
8488;SDS011;4281;45.772;12.852;2023-08-21T14:25:04;6.03;;;5.63;;
8488;SDS011;4281;45.772;12.852;2023-08-21T14:27:33;6.70;;;6.10;;
8488;SDS011;4281;45.772;12.852;2023-08-21T14:30:01;6.87;;;6.30;;
8488;SDS011;4281;45.772;12.852;2023-08-21T14:32:30;6.30;;;5.80;;
8488;SDS011;4281;45.772;12.852;2023-08-21T14:35:02;6.57;;;5.90;;
8488;SDS011;4281;45.772;12.852;2023-08-21T14:37:30;7.20;;;6.60;;
8488;SDS011;4281;45.772;12.852;2023-08-21T14:39:58;7.80;;;7.10;;
8488;SDS011;4281;45.772;12.852;2023-08-21T14:42:27;8.10;;;7.40;;
8488;SDS011;4281;45.772;12.852;2023-08-21T14:44:55;7.63;;;7.00;;
8488;SDS011;4281;45.772;12.852;2023-08-21T14:47:23;7.73;;;7.07;;
8488;SDS011;4281;45.772;12.852;2023-08-21T14:49:51;7.47;;;6.87;;
8488;SDS011;4281;45.772;12.852;2023-08-21T14:52:20;8.60;;;7.77;;
8488;SDS011;4281;45.772;12.852;2023-08-21T14:54:48;8.37;;;7.60;;
8488;SDS011;4281;45.772;12.852;2023-08-21T14:57:16;7.47;;;6.70;;
8488;SDS011;4281;45.772;12.852;2023-08-21T14:59:45;7.97;;;7.27;;
8488;SDS011;4281;45.772;12.852;2023-08-21T15:02:13;8.73;;;7.93;;
8488;SDS011;4281;45.772;12.852;2023-08-21T15:04:42;7.87;;;7.17;;
8488;SDS011;4281;45.772;12.852;2023-08-21T15:07:10;7.67;;;6.93;;
8488;SDS011;4281;45.772;12.852;2023-08-21T15:09:38;7.10;;;6.50;;